createdAt,value
2019-03-23T00:27:26.161Z,1022.48
2019-03-23T00:27:26.724Z,1022.51
2019-03-23T00:27:27.325Z,1022.47
2019-03-23T00:27:27.925Z,1022.49
2019-03-23T00:27:28.523Z,1022.52
2019-03-23T00:27:29.123Z,1022.49
2019-03-23T00:27:29.725Z,1022.53
2019-03-23T00:27:30.324Z,1022.51
2019-03-23T00:28:23.807Z,1022.25
2019-03-23T00:28:24.378Z,1022.38
2019-03-23T00:28:24.977Z,1022.44
2019-03-23T00:28:25.577Z,1022.46
2019-03-23T00:28:26.176Z,1022.47
2019-03-23T00:28:26.775Z,1022.49
2019-03-23T00:28:27.375Z,1022.51
2019-03-23T00:28:27.975Z,1022.52
2019-03-23T00:29:21.433Z,1022.28
2019-03-23T00:29:22.030Z,1022.36
2019-03-23T00:29:22.632Z,1022.37
2019-03-23T00:29:23.229Z,1022.39
2019-03-23T00:29:23.830Z,1022.46
2019-03-23T00:29:24.429Z,1022.45
2019-03-23T00:29:25.028Z,1022.47
2019-03-23T00:29:25.629Z,1022.53
2019-03-23T00:30:20.109Z,1022.25
2019-03-23T00:30:20.704Z,1022.31
2019-03-23T00:30:21.303Z,1022.30
2019-03-23T00:30:21.908Z,1022.36
2019-03-23T00:30:22.502Z,1022.42
2019-03-23T00:30:23.102Z,1022.39
2019-03-23T00:30:23.703Z,1022.47
2019-03-23T00:30:24.301Z,1022.46
2019-03-23T00:31:17.761Z,1022.34
2019-03-23T00:31:18.359Z,1022.37
2019-03-23T00:31:18.958Z,1022.39
2019-03-23T00:31:19.557Z,1022.45
2019-03-23T00:31:20.157Z,1022.49
2019-03-23T00:31:20.759Z,1022.47
2019-03-23T00:31:21.358Z,1022.52
2019-03-23T00:31:21.957Z,1022.51
2019-03-23T00:32:16.437Z,1022.31
2019-03-23T00:32:17.033Z,1022.38
2019-03-23T00:32:17.633Z,1022.38
2019-03-23T00:32:18.233Z,1022.40
2019-03-23T00:32:18.835Z,1022.41
2019-03-23T00:32:19.433Z,1022.50
2019-03-23T00:32:20.032Z,1022.49
2019-03-23T00:32:20.634Z,1022.51
2019-03-23T00:33:15.139Z,1022.34
2019-03-23T00:33:15.709Z,1022.35
2019-03-23T00:33:16.310Z,1022.42
2019-03-23T00:33:16.909Z,1022.40
2019-03-23T00:33:17.509Z,1022.44
2019-03-23T00:33:18.109Z,1022.51
2019-03-23T00:33:18.709Z,1022.52
2019-03-23T00:33:19.309Z,1022.53
2019-03-23T00:34:13.790Z,1022.36
2019-03-23T00:34:14.385Z,1022.37
2019-03-23T00:34:14.985Z,1022.40
2019-03-23T00:34:15.586Z,1022.45
2019-03-23T00:34:16.185Z,1022.47
2019-03-23T00:34:16.784Z,1022.48
2019-03-23T00:34:17.392Z,1022.51
2019-03-23T00:34:17.985Z,1022.53
2019-03-23T00:35:12.465Z,1022.43
2019-03-23T00:35:13.061Z,1022.41
2019-03-23T00:35:13.661Z,1022.44
2019-03-23T00:35:14.261Z,1022.48
2019-03-23T00:35:14.861Z,1022.51
2019-03-23T00:35:15.461Z,1022.51
2019-03-23T00:35:16.061Z,1022.56
2019-03-23T00:35:16.660Z,1022.55
2019-03-23T00:36:11.142Z,1022.47
2019-03-23T00:36:11.742Z,1022.41
2019-03-23T00:36:12.337Z,1022.43
2019-03-23T00:36:12.993Z,1022.44
2019-03-23T00:36:13.536Z,1022.50
2019-03-23T00:36:14.134Z,1022.53
2019-03-23T00:36:14.734Z,1022.56
2019-03-23T00:36:15.339Z,1022.57
2019-03-23T00:37:09.817Z,1022.49
2019-03-23T00:37:10.414Z,1022.45
2019-03-23T00:37:11.013Z,1022.46
2019-03-23T00:37:11.613Z,1022.48
2019-03-23T00:37:12.212Z,1022.52
2019-03-23T00:37:12.813Z,1022.49
2019-03-23T00:37:13.413Z,1022.52
2019-03-23T00:37:14.011Z,1022.55
2019-03-23T00:38:08.576Z,1022.52
2019-03-23T00:38:09.090Z,1022.49
2019-03-23T00:38:09.692Z,1022.49
2019-03-23T00:38:10.289Z,1022.51
2019-03-23T00:38:10.890Z,1022.53
2019-03-23T00:38:11.488Z,1022.55
2019-03-23T00:38:12.089Z,1022.59
2019-03-23T00:38:12.689Z,1022.60
2019-03-23T00:39:07.169Z,1022.62
2019-03-23T00:39:07.764Z,1022.56
2019-03-23T00:39:08.367Z,1022.53
2019-03-23T00:39:08.964Z,1022.55
2019-03-23T00:39:09.563Z,1022.55
2019-03-23T00:39:10.165Z,1022.57
2019-03-23T00:39:10.764Z,1022.61
2019-03-23T00:39:11.364Z,1022.58
2019-03-23T00:40:05.845Z,1022.61
2019-03-23T00:40:06.443Z,1022.53
2019-03-23T00:40:07.042Z,1022.55
2019-03-23T00:40:07.640Z,1022.54
2019-03-23T00:40:08.243Z,1022.55
2019-03-23T00:40:08.841Z,1022.62
2019-03-23T00:40:09.440Z,1022.52
2019-03-23T00:40:10.043Z,1022.58
2019-03-23T00:41:04.520Z,1022.68
2019-03-23T00:41:05.120Z,1022.58
2019-03-23T00:41:05.717Z,1022.52
2019-03-23T00:41:06.319Z,1022.55
2019-03-23T00:41:06.917Z,1022.55
2019-03-23T00:41:07.520Z,1022.60
2019-03-23T00:41:08.118Z,1022.58
2019-03-23T00:41:08.719Z,1022.58
2019-03-23T00:42:02.175Z,1022.70
2019-03-23T00:42:02.769Z,1022.53
2019-03-23T00:42:03.368Z,1022.52
2019-03-23T00:42:03.969Z,1022.52
2019-03-23T00:42:04.570Z,1022.54
2019-03-23T00:42:05.168Z,1022.57
2019-03-23T00:42:05.768Z,1022.59
2019-03-23T00:42:06.368Z,1022.57
2019-03-23T00:43:00.848Z,1022.68
2019-03-23T00:43:01.448Z,1022.57
2019-03-23T00:43:02.046Z,1022.54
2019-03-23T00:43:02.644Z,1022.53
2019-03-23T00:43:03.252Z,1022.56
2019-03-23T00:43:03.850Z,1022.55
2019-03-23T00:43:04.447Z,1022.58
2019-03-23T00:43:05.044Z,1022.59
2019-03-23T00:43:59.547Z,1022.68
2019-03-23T00:44:00.121Z,1022.57
2019-03-23T00:44:00.719Z,1022.56
2019-03-23T00:44:01.321Z,1022.56
2019-03-23T00:44:01.922Z,1022.54
2019-03-23T00:44:02.521Z,1022.54
2019-03-23T00:44:03.118Z,1022.59
2019-03-23T00:44:03.720Z,1022.58
2019-03-23T00:44:57.175Z,1022.70
2019-03-23T00:44:57.774Z,1022.67
2019-03-23T00:44:58.375Z,1022.66
2019-03-23T00:44:58.972Z,1022.64
2019-03-23T00:44:59.573Z,1022.63
2019-03-23T00:45:00.337Z,1022.65
2019-03-23T00:45:00.772Z,1022.67
2019-03-23T00:45:01.377Z,1022.71
2019-03-23T00:45:54.829Z,1022.84
2019-03-23T00:45:55.425Z,1022.76
2019-03-23T00:45:56.025Z,1022.75
2019-03-23T00:45:56.625Z,1022.74
2019-03-23T00:45:57.225Z,1022.74
2019-03-23T00:45:57.824Z,1022.77
2019-03-23T00:45:58.424Z,1022.76
2019-03-23T00:45:59.027Z,1022.78
2019-03-23T00:46:53.506Z,1022.94
2019-03-23T00:46:54.101Z,1022.87
2019-03-23T00:46:54.701Z,1022.85
2019-03-23T00:46:55.301Z,1022.83
2019-03-23T00:46:55.903Z,1022.80
2019-03-23T00:46:56.500Z,1022.83
2019-03-23T00:46:57.101Z,1022.82
2019-03-23T00:46:57.700Z,1022.86
2019-03-23T00:47:52.177Z,1022.90
2019-03-23T00:47:52.776Z,1022.82
2019-03-23T00:47:53.375Z,1022.82
2019-03-23T00:47:53.974Z,1022.82
2019-03-23T00:47:54.576Z,1022.82
2019-03-23T00:47:55.177Z,1022.78
2019-03-23T00:47:55.774Z,1022.82
2019-03-23T00:47:56.374Z,1022.77
2019-03-23T00:48:50.877Z,1022.96
2019-03-23T00:48:51.452Z,1022.91
2019-03-23T00:48:52.052Z,1022.93
2019-03-23T00:48:52.652Z,1022.91
2019-03-23T00:48:53.252Z,1022.90
2019-03-23T00:48:53.850Z,1022.93
2019-03-23T00:48:54.453Z,1022.89
2019-03-23T00:48:55.049Z,1022.92
2019-03-23T00:49:48.506Z,1023.05
2019-03-23T00:49:49.105Z,1023.01
2019-03-23T00:49:49.703Z,1022.99
2019-03-23T00:49:50.304Z,1022.94
2019-03-23T00:49:50.903Z,1022.92
2019-03-23T00:49:51.503Z,1022.93
2019-03-23T00:49:52.102Z,1022.92
2019-03-23T00:49:52.704Z,1022.93
2019-03-23T00:50:46.158Z,1023.09
2019-03-23T00:50:46.758Z,1023.10
2019-03-23T00:50:47.356Z,1023.08
2019-03-23T00:50:47.956Z,1023.10
2019-03-23T00:50:48.556Z,1023.08
2019-03-23T00:50:49.156Z,1023.04
2019-03-23T00:50:49.757Z,1023.05
2019-03-23T00:50:50.357Z,1023.03
2019-03-23T00:51:44.835Z,1023.17
2019-03-23T00:51:45.432Z,1023.18
2019-03-23T00:51:46.033Z,1023.14
2019-03-23T00:51:46.629Z,1023.16
2019-03-23T00:51:47.232Z,1023.13
2019-03-23T00:51:47.829Z,1023.14
2019-03-23T00:51:48.430Z,1023.11
2019-03-23T00:51:49.031Z,1023.14
2019-03-23T00:52:42.488Z,1023.17
2019-03-23T00:52:43.083Z,1023.16
2019-03-23T00:52:43.683Z,1023.21
2019-03-23T00:52:44.281Z,1023.19
2019-03-23T00:52:44.884Z,1023.20
2019-03-23T00:52:45.482Z,1023.19
2019-03-23T00:52:46.113Z,1023.17
2019-03-23T00:52:46.682Z,1023.17
2019-03-23T00:53:40.171Z,1023.22
2019-03-23T00:53:40.733Z,1023.21
2019-03-23T00:53:41.334Z,1023.25
2019-03-23T00:53:41.935Z,1023.25
2019-03-23T00:53:42.534Z,1023.25
2019-03-23T00:53:43.135Z,1023.23
2019-03-23T00:53:43.734Z,1023.24
2019-03-23T00:53:44.336Z,1023.24
2019-03-23T00:54:38.815Z,1023.22
2019-03-23T00:54:39.410Z,1023.18
2019-03-23T00:54:40.010Z,1023.21
2019-03-23T00:54:40.609Z,1023.21
2019-03-23T00:54:41.211Z,1023.19
2019-03-23T00:54:41.812Z,1023.22
2019-03-23T00:54:42.410Z,1023.22
2019-03-23T00:54:43.008Z,1023.20
2019-03-23T00:55:36.468Z,1023.20
2019-03-23T00:55:37.062Z,1023.17
2019-03-23T00:55:37.661Z,1023.17
2019-03-23T00:55:38.260Z,1023.23
2019-03-23T00:55:38.861Z,1023.21
2019-03-23T00:55:39.462Z,1023.20
2019-03-23T00:55:40.059Z,1023.23
2019-03-23T00:55:40.661Z,1023.22
2019-03-23T00:56:34.116Z,1023.20
2019-03-23T00:56:34.712Z,1023.18
2019-03-23T00:56:35.317Z,1023.23
2019-03-23T00:56:35.915Z,1023.24
2019-03-23T00:56:36.514Z,1023.21
2019-03-23T00:56:37.114Z,1023.22
2019-03-23T00:56:37.712Z,1023.21
2019-03-23T00:56:38.313Z,1023.22
2019-03-23T00:57:32.792Z,1023.25
2019-03-23T00:57:33.390Z,1023.21
2019-03-23T00:57:33.988Z,1023.25
2019-03-23T00:57:34.588Z,1023.25
2019-03-23T00:57:35.189Z,1023.23
2019-03-23T00:57:35.789Z,1023.24
2019-03-23T00:57:36.390Z,1023.28
2019-03-23T00:57:36.988Z,1023.25
2019-03-23T00:58:31.467Z,1023.31
2019-03-23T00:58:32.064Z,1023.20
2019-03-23T00:58:32.679Z,1023.26
2019-03-23T00:58:33.264Z,1023.21
2019-03-23T00:58:33.866Z,1023.19
2019-03-23T00:58:34.462Z,1023.20
2019-03-23T00:58:35.064Z,1023.21
2019-03-23T00:58:35.662Z,1023.22
2019-03-23T00:59:29.147Z,1023.07
2019-03-23T00:59:29.718Z,1023.09
2019-03-23T00:59:30.316Z,1023.11
2019-03-23T00:59:30.916Z,1023.12
2019-03-23T00:59:31.515Z,1023.12
2019-03-23T00:59:32.116Z,1023.14
2019-03-23T00:59:32.715Z,1023.15
2019-03-23T00:59:33.315Z,1023.13
2019-03-23T01:00:26.783Z,1023.13
2019-03-23T01:00:27.370Z,1023.09
2019-03-23T01:00:27.968Z,1023.14
2019-03-23T01:00:28.568Z,1023.14
2019-03-23T01:00:29.168Z,1023.12
2019-03-23T01:00:29.769Z,1023.15
2019-03-23T01:00:30.367Z,1023.17
2019-03-23T01:00:30.966Z,1023.14
2019-03-23T01:01:25.447Z,1023.04
2019-03-23T01:01:26.043Z,1023.05
2019-03-23T01:01:26.644Z,1023.06
2019-03-23T01:01:27.243Z,1023.09
2019-03-23T01:01:27.849Z,1023.12
2019-03-23T01:01:28.441Z,1023.14
2019-03-23T01:01:29.042Z,1023.14
2019-03-23T01:01:29.642Z,1023.16
2019-03-23T01:02:24.123Z,1023.13
2019-03-23T01:02:24.726Z,1023.11
2019-03-23T01:02:25.319Z,1023.14
2019-03-23T01:02:25.919Z,1023.15
2019-03-23T01:02:26.519Z,1023.17
2019-03-23T01:02:27.123Z,1023.16
2019-03-23T01:02:27.719Z,1023.15
2019-03-23T01:02:28.319Z,1023.18
2019-03-23T01:03:21.777Z,1023.09
2019-03-23T01:03:22.372Z,1023.08
2019-03-23T01:03:22.975Z,1023.13
2019-03-23T01:03:23.572Z,1023.15
2019-03-23T01:03:24.172Z,1023.14
2019-03-23T01:03:24.772Z,1023.15
2019-03-23T01:03:25.370Z,1023.18
2019-03-23T01:03:25.973Z,1023.17
2019-03-23T01:04:19.453Z,1023.19
2019-03-23T01:04:20.024Z,1023.22
2019-03-23T01:04:20.624Z,1023.22
2019-03-23T01:04:21.224Z,1023.20
2019-03-23T01:04:21.823Z,1023.23
2019-03-23T01:04:22.423Z,1023.24
2019-03-23T01:04:23.025Z,1023.23
2019-03-23T01:04:23.626Z,1023.24
2019-03-23T01:05:17.082Z,1023.09
2019-03-23T01:05:17.673Z,1023.11
2019-03-23T01:05:18.275Z,1023.06
2019-03-23T01:05:18.874Z,1023.14
2019-03-23T01:05:19.473Z,1023.14
2019-03-23T01:05:20.075Z,1023.14
2019-03-23T01:05:20.675Z,1023.14
2019-03-23T01:05:21.273Z,1023.13
2019-03-23T01:06:15.754Z,1023.08
2019-03-23T01:06:16.350Z,1023.10
2019-03-23T01:06:16.951Z,1023.14
2019-03-23T01:06:17.558Z,1023.16
2019-03-23T01:06:18.150Z,1023.17
2019-03-23T01:06:18.750Z,1023.17
2019-03-23T01:06:19.350Z,1023.16
2019-03-23T01:06:19.949Z,1023.13
2019-03-23T01:07:13.406Z,1023.06
2019-03-23T01:07:14.002Z,1023.07
2019-03-23T01:07:14.607Z,1023.11
2019-03-23T01:07:15.203Z,1023.12
2019-03-23T01:07:15.801Z,1023.15
2019-03-23T01:07:16.403Z,1023.15
2019-03-23T01:07:17.002Z,1023.11
2019-03-23T01:07:17.604Z,1023.13
2019-03-23T01:08:11.058Z,1023.16
2019-03-23T01:08:11.653Z,1023.15
2019-03-23T01:08:12.255Z,1023.15
2019-03-23T01:08:12.853Z,1023.13
2019-03-23T01:08:13.458Z,1023.17
2019-03-23T01:08:14.054Z,1023.13
2019-03-23T01:08:14.654Z,1023.15
2019-03-23T01:08:15.252Z,1023.14
2019-03-23T01:09:08.744Z,1023.13
2019-03-23T01:09:09.307Z,1023.17
2019-03-23T01:09:09.906Z,1023.18
2019-03-23T01:09:10.506Z,1023.20
2019-03-23T01:09:11.105Z,1023.22
2019-03-23T01:09:11.709Z,1023.22
2019-03-23T01:09:12.306Z,1023.18
2019-03-23T01:09:12.906Z,1023.21
2019-03-23T01:10:07.384Z,1023.22
2019-03-23T01:10:07.980Z,1023.24
2019-03-23T01:10:08.580Z,1023.23
2019-03-23T01:10:09.183Z,1023.25
2019-03-23T01:10:09.781Z,1023.25
2019-03-23T01:10:10.382Z,1023.28
2019-03-23T01:10:10.983Z,1023.30
2019-03-23T01:10:11.580Z,1023.23
2019-03-23T01:11:06.061Z,1023.18
2019-03-23T01:11:06.657Z,1023.19
2019-03-23T01:11:07.256Z,1023.22
2019-03-23T01:11:07.857Z,1023.22
2019-03-23T01:11:08.456Z,1023.21
2019-03-23T01:11:09.056Z,1023.24
2019-03-23T01:11:09.657Z,1023.24
2019-03-23T01:11:10.255Z,1023.23
2019-03-23T01:12:03.712Z,1023.15
2019-03-23T01:12:04.310Z,1023.18
2019-03-23T01:12:04.908Z,1023.20
2019-03-23T01:12:05.509Z,1023.23
2019-03-23T01:12:06.112Z,1023.22
2019-03-23T01:12:06.710Z,1023.23
2019-03-23T01:12:07.308Z,1023.25
2019-03-23T01:12:07.910Z,1023.20
2019-03-23T01:13:02.388Z,1023.23
2019-03-23T01:13:02.985Z,1023.25
2019-03-23T01:13:03.584Z,1023.27
2019-03-23T01:13:04.188Z,1023.23
2019-03-23T01:13:04.785Z,1023.22
2019-03-23T01:13:05.385Z,1023.22
2019-03-23T01:13:05.984Z,1023.26
2019-03-23T01:13:06.583Z,1023.23
2019-03-23T01:14:00.045Z,1023.15
2019-03-23T01:14:00.638Z,1023.16
2019-03-23T01:14:01.238Z,1023.16
2019-03-23T01:14:01.837Z,1023.19
2019-03-23T01:14:02.438Z,1023.19
2019-03-23T01:14:03.038Z,1023.22
2019-03-23T01:14:03.635Z,1023.22
2019-03-23T01:14:04.235Z,1023.25
2019-03-23T01:14:58.747Z,1023.16
2019-03-23T01:14:59.319Z,1023.15
2019-03-23T01:14:59.910Z,1023.15
2019-03-23T01:15:00.511Z,1023.19
2019-03-23T01:15:01.167Z,1023.14
2019-03-23T01:15:01.716Z,1023.16
2019-03-23T01:15:02.312Z,1023.17
2019-03-23T01:15:02.910Z,1023.18
2019-03-23T01:15:56.368Z,1023.14
2019-03-23T01:15:56.964Z,1023.15
2019-03-23T01:15:57.565Z,1023.12
2019-03-23T01:15:58.163Z,1023.18
2019-03-23T01:15:58.764Z,1023.18
2019-03-23T01:15:59.373Z,1023.19
2019-03-23T01:15:59.965Z,1023.19
2019-03-23T01:16:00.563Z,1023.18
2019-03-23T01:16:55.042Z,1023.14
2019-03-23T01:16:55.639Z,1023.16
2019-03-23T01:16:56.239Z,1023.16
2019-03-23T01:16:56.842Z,1023.20
2019-03-23T01:16:57.439Z,1023.19
2019-03-23T01:16:58.039Z,1023.24
2019-03-23T01:16:58.637Z,1023.19
2019-03-23T01:16:59.241Z,1023.20
2019-03-23T01:17:53.718Z,1023.17
2019-03-23T01:17:54.314Z,1023.18
2019-03-23T01:17:54.920Z,1023.21
2019-03-23T01:17:55.516Z,1023.18
2019-03-23T01:17:56.113Z,1023.20
2019-03-23T01:17:56.711Z,1023.20
2019-03-23T01:17:57.312Z,1023.20
2019-03-23T01:17:57.913Z,1023.19
2019-03-23T01:18:51.370Z,1023.18
2019-03-23T01:18:51.968Z,1023.17
2019-03-23T01:18:52.569Z,1023.22
2019-03-23T01:18:53.166Z,1023.27
2019-03-23T01:18:53.767Z,1023.28
2019-03-23T01:18:54.367Z,1023.33
2019-03-23T01:18:54.967Z,1023.29
2019-03-23T01:18:55.566Z,1023.32
2019-03-23T01:19:50.044Z,1023.27
2019-03-23T01:19:50.642Z,1023.25
2019-03-23T01:19:51.241Z,1023.28
2019-03-23T01:19:51.842Z,1023.28
2019-03-23T01:19:52.442Z,1023.29
2019-03-23T01:19:53.042Z,1023.28
2019-03-23T01:19:53.641Z,1023.29
2019-03-23T01:19:54.241Z,1023.25
2019-03-23T01:20:49.826Z,1023.31
2019-03-23T01:20:50.089Z,1023.30
2019-03-23T01:20:50.141Z,1023.27
2019-03-23T01:20:50.517Z,1023.27
2019-03-23T01:20:51.119Z,1023.32
2019-03-23T01:20:51.719Z,1023.30
2019-03-23T01:20:52.316Z,1023.33
2019-03-23T01:20:52.916Z,1023.30
2019-03-23T01:21:47.397Z,1023.30
2019-03-23T01:21:47.993Z,1023.28
2019-03-23T01:21:48.592Z,1023.27
2019-03-23T01:21:49.196Z,1023.28
2019-03-23T01:21:49.793Z,1023.28
2019-03-23T01:21:50.394Z,1023.32
2019-03-23T01:21:50.994Z,1023.35
2019-03-23T01:21:51.592Z,1023.29
2019-03-23T01:22:45.051Z,1023.24
2019-03-23T01:22:45.647Z,1023.23
2019-03-23T01:22:46.246Z,1023.24
2019-03-23T01:22:46.846Z,1023.25
2019-03-23T01:22:47.446Z,1023.27
2019-03-23T01:22:48.046Z,1023.24
2019-03-23T01:22:48.645Z,1023.21
2019-03-23T01:22:49.245Z,1023.26
2019-03-23T01:23:43.727Z,1023.24
2019-03-23T01:23:44.321Z,1023.27
2019-03-23T01:23:44.920Z,1023.23
2019-03-23T01:23:45.522Z,1023.23
2019-03-23T01:23:46.122Z,1023.28
2019-03-23T01:23:46.721Z,1023.27
2019-03-23T01:23:47.321Z,1023.26
2019-03-23T01:23:47.920Z,1023.25
2019-03-23T01:24:42.399Z,1023.31
2019-03-23T01:24:42.998Z,1023.30
2019-03-23T01:24:43.601Z,1023.31
2019-03-23T01:24:44.195Z,1023.32
2019-03-23T01:24:44.795Z,1023.33
2019-03-23T01:24:45.394Z,1023.36
2019-03-23T01:24:45.996Z,1023.36
2019-03-23T01:24:46.598Z,1023.34
2019-03-23T01:25:40.080Z,1023.32
2019-03-23T01:25:40.649Z,1023.29
2019-03-23T01:25:41.248Z,1023.30
2019-03-23T01:25:41.847Z,1023.31
2019-03-23T01:25:42.449Z,1023.34
2019-03-23T01:25:43.057Z,1023.32
2019-03-23T01:25:43.647Z,1023.34
2019-03-23T01:25:44.250Z,1023.35
2019-03-23T01:26:37.704Z,1023.29
2019-03-23T01:26:38.302Z,1023.30
2019-03-23T01:26:38.901Z,1023.29
2019-03-23T01:26:39.501Z,1023.31
2019-03-23T01:26:40.101Z,1023.34
2019-03-23T01:26:40.701Z,1023.32
2019-03-23T01:26:41.300Z,1023.34
2019-03-23T01:26:41.901Z,1023.36
2019-03-23T01:27:35.356Z,1023.22
2019-03-23T01:27:35.955Z,1023.23
2019-03-23T01:27:36.553Z,1023.28
2019-03-23T01:27:37.153Z,1023.27
2019-03-23T01:27:37.754Z,1023.24
2019-03-23T01:27:38.361Z,1023.26
2019-03-23T01:27:38.954Z,1023.28
2019-03-23T01:27:39.553Z,1023.26
2019-03-23T01:28:33.007Z,1023.30
2019-03-23T01:28:33.603Z,1023.29
2019-03-23T01:28:34.205Z,1023.28
2019-03-23T01:28:34.804Z,1023.30
2019-03-23T01:28:35.403Z,1023.29
2019-03-23T01:28:36.004Z,1023.30
2019-03-23T01:28:36.603Z,1023.28
2019-03-23T01:28:37.202Z,1023.26
2019-03-23T01:29:31.684Z,1023.24
2019-03-23T01:29:32.279Z,1023.24
2019-03-23T01:29:32.879Z,1023.24
2019-03-23T01:29:33.479Z,1023.28
2019-03-23T01:29:34.080Z,1023.24
2019-03-23T01:29:34.678Z,1023.22
2019-03-23T01:29:35.276Z,1023.27
2019-03-23T01:29:35.878Z,1023.29
2019-03-23T01:30:29.335Z,1023.34
2019-03-23T01:30:29.932Z,1023.29
2019-03-23T01:30:30.531Z,1023.29
2019-03-23T01:30:31.132Z,1023.32
2019-03-23T01:30:31.736Z,1023.30
2019-03-23T01:30:32.332Z,1023.31
2019-03-23T01:30:32.933Z,1023.30
2019-03-23T01:30:33.531Z,1023.26
2019-03-23T01:31:27.015Z,1023.36
2019-03-23T01:31:27.582Z,1023.31
2019-03-23T01:31:28.185Z,1023.34
2019-03-23T01:31:28.782Z,1023.33
2019-03-23T01:31:29.383Z,1023.38
2019-03-23T01:31:29.983Z,1023.33
2019-03-23T01:31:30.583Z,1023.33
2019-03-23T01:31:31.183Z,1023.33
2019-03-23T01:32:25.661Z,1023.40
2019-03-23T01:32:26.264Z,1023.34
2019-03-23T01:32:26.858Z,1023.35
2019-03-23T01:32:27.457Z,1023.43
2019-03-23T01:32:28.059Z,1023.37
2019-03-23T01:32:28.657Z,1023.41
2019-03-23T01:32:29.258Z,1023.37
2019-03-23T01:32:29.861Z,1023.45
2019-03-23T01:33:23.343Z,1023.37
2019-03-23T01:33:23.911Z,1023.37
2019-03-23T01:33:24.510Z,1023.38
2019-03-23T01:33:25.112Z,1023.40
2019-03-23T01:33:25.711Z,1023.37
2019-03-23T01:33:26.310Z,1023.41
2019-03-23T01:33:26.910Z,1023.38
2019-03-23T01:33:27.509Z,1023.41
2019-03-23T01:34:21.990Z,1023.45
2019-03-23T01:34:22.589Z,1023.41
2019-03-23T01:34:23.189Z,1023.40
2019-03-23T01:34:23.785Z,1023.45
2019-03-23T01:34:24.385Z,1023.43
2019-03-23T01:34:24.987Z,1023.41
2019-03-23T01:34:25.584Z,1023.43
2019-03-23T01:34:26.185Z,1023.43
2019-03-23T01:35:20.674Z,1023.44
2019-03-23T01:35:21.261Z,1023.48
2019-03-23T01:35:21.861Z,1023.40
2019-03-23T01:35:22.462Z,1023.41
2019-03-23T01:35:23.061Z,1023.39
2019-03-23T01:35:23.662Z,1023.40
2019-03-23T01:35:24.260Z,1023.40
2019-03-23T01:35:24.862Z,1023.38
2019-03-23T01:36:18.345Z,1023.39
2019-03-23T01:36:18.914Z,1023.38
2019-03-23T01:36:19.516Z,1023.38
2019-03-23T01:36:20.114Z,1023.41
2019-03-23T01:36:20.713Z,1023.37
2019-03-23T01:36:21.314Z,1023.42
2019-03-23T01:36:21.913Z,1023.40
2019-03-23T01:36:22.513Z,1023.39
2019-03-23T01:37:16.993Z,1023.45
2019-03-23T01:37:17.589Z,1023.40
2019-03-23T01:37:18.189Z,1023.44
2019-03-23T01:37:18.787Z,1023.43
2019-03-23T01:37:19.388Z,1023.40
2019-03-23T01:37:19.990Z,1023.45
2019-03-23T01:37:20.593Z,1023.43
2019-03-23T01:37:21.187Z,1023.44
2019-03-23T01:38:14.645Z,1023.43
2019-03-23T01:38:15.244Z,1023.38
2019-03-23T01:38:15.841Z,1023.39
2019-03-23T01:38:16.442Z,1023.38
2019-03-23T01:38:17.041Z,1023.40
2019-03-23T01:38:17.641Z,1023.40
2019-03-23T01:38:18.241Z,1023.39
2019-03-23T01:38:18.841Z,1023.38
2019-03-23T01:39:12.296Z,1023.43
2019-03-23T01:39:12.892Z,1023.39
2019-03-23T01:39:13.493Z,1023.41
2019-03-23T01:39:14.093Z,1023.44
2019-03-23T01:39:14.695Z,1023.43
2019-03-23T01:39:15.294Z,1023.42
2019-03-23T01:39:15.893Z,1023.38
2019-03-23T01:39:16.492Z,1023.40
2019-03-23T01:40:09.949Z,1023.46
2019-03-23T01:40:10.546Z,1023.44
2019-03-23T01:40:11.145Z,1023.42
2019-03-23T01:40:11.744Z,1023.40
2019-03-23T01:40:12.344Z,1023.42
2019-03-23T01:40:12.948Z,1023.47
2019-03-23T01:40:13.543Z,1023.43
2019-03-23T01:40:14.142Z,1023.42
2019-03-23T01:41:08.653Z,1023.41
2019-03-23T01:41:09.221Z,1023.42
2019-03-23T01:41:09.819Z,1023.40
2019-03-23T01:41:10.424Z,1023.40
2019-03-23T01:41:11.021Z,1023.43
2019-03-23T01:41:11.620Z,1023.43
2019-03-23T01:41:12.219Z,1023.42
2019-03-23T01:41:12.866Z,1023.41
2019-03-23T01:42:06.275Z,1023.50
2019-03-23T01:42:06.873Z,1023.47
2019-03-23T01:42:07.474Z,1023.44
2019-03-23T01:42:08.073Z,1023.46
2019-03-23T01:42:08.673Z,1023.45
2019-03-23T01:42:09.273Z,1023.45
2019-03-23T01:42:09.872Z,1023.44
2019-03-23T01:42:10.471Z,1023.45
2019-03-23T01:43:04.954Z,1023.53
2019-03-23T01:43:05.548Z,1023.50
2019-03-23T01:43:06.149Z,1023.51
2019-03-23T01:43:06.746Z,1023.53
2019-03-23T01:43:07.347Z,1023.52
2019-03-23T01:43:07.950Z,1023.56
2019-03-23T01:43:08.546Z,1023.51
2019-03-23T01:43:09.151Z,1023.49
2019-03-23T01:44:02.605Z,1023.48
2019-03-23T01:44:03.201Z,1023.53
2019-03-23T01:44:03.799Z,1023.49
2019-03-23T01:44:04.401Z,1023.50
2019-03-23T01:44:05.007Z,1023.52
2019-03-23T01:44:05.600Z,1023.52
2019-03-23T01:44:06.200Z,1023.53
2019-03-23T01:44:06.800Z,1023.50
2019-03-23T01:45:01.283Z,1023.56
2019-03-23T01:45:01.877Z,1023.59
2019-03-23T01:45:02.475Z,1023.56
2019-03-23T01:45:03.074Z,1023.56
2019-03-23T01:45:03.673Z,1023.56
2019-03-23T01:45:04.274Z,1023.60
2019-03-23T01:45:04.873Z,1023.59
2019-03-23T01:45:05.472Z,1023.60
2019-03-23T01:45:59.978Z,1023.58
2019-03-23T01:46:00.550Z,1023.59
2019-03-23T01:46:01.150Z,1023.59
2019-03-23T01:46:01.749Z,1023.59
2019-03-23T01:46:02.351Z,1023.58
2019-03-23T01:46:02.950Z,1023.57
2019-03-23T01:46:03.549Z,1023.60
2019-03-23T01:46:04.150Z,1023.59
2019-03-23T01:46:58.631Z,1023.65
2019-03-23T01:46:59.230Z,1023.61
2019-03-23T01:46:59.826Z,1023.60
2019-03-23T01:47:00.429Z,1023.61
2019-03-23T01:47:01.024Z,1023.66
2019-03-23T01:47:01.625Z,1023.63
2019-03-23T01:47:02.226Z,1023.62
2019-03-23T01:47:02.824Z,1023.59
2019-03-23T01:47:56.284Z,1023.62
2019-03-23T01:47:56.880Z,1023.60
2019-03-23T01:47:57.479Z,1023.60
2019-03-23T01:47:58.077Z,1023.60
2019-03-23T01:47:58.679Z,1023.59
2019-03-23T01:47:59.281Z,1023.58
2019-03-23T01:47:59.878Z,1023.62
2019-03-23T01:48:00.478Z,1023.61
2019-03-23T01:48:53.934Z,1023.62
2019-03-23T01:48:54.532Z,1023.60
2019-03-23T01:48:55.130Z,1023.64
2019-03-23T01:48:55.731Z,1023.61
2019-03-23T01:48:56.330Z,1023.60
2019-03-23T01:48:56.932Z,1023.68
2019-03-23T01:48:57.530Z,1023.66
2019-03-23T01:48:58.132Z,1023.63
2019-03-23T01:49:52.610Z,1023.64
2019-03-23T01:49:53.206Z,1023.65
2019-03-23T01:49:53.805Z,1023.66
2019-03-23T01:49:54.412Z,1023.64
2019-03-23T01:49:55.005Z,1023.65
2019-03-23T01:49:55.606Z,1023.67
2019-03-23T01:49:56.205Z,1023.64
2019-03-23T01:49:56.804Z,1023.63
2019-03-23T01:50:50.288Z,1023.63
2019-03-23T01:50:50.860Z,1023.62
2019-03-23T01:50:51.459Z,1023.57
2019-03-23T01:50:52.058Z,1023.61
2019-03-23T01:50:52.663Z,1023.62
2019-03-23T01:50:53.778Z,1023.61
2019-03-23T01:50:53.855Z,1023.60
2019-03-23T01:50:54.455Z,1023.59
2019-03-23T01:51:47.913Z,1023.66
2019-03-23T01:51:48.510Z,1023.63
2019-03-23T01:51:49.109Z,1023.66
2019-03-23T01:51:49.710Z,1023.64
2019-03-23T01:51:50.310Z,1023.64
2019-03-23T01:51:50.911Z,1023.65
2019-03-23T01:51:51.509Z,1023.69
2019-03-23T01:51:52.110Z,1023.67
2019-03-23T01:52:46.588Z,1023.69
2019-03-23T01:52:47.185Z,1023.66
2019-03-23T01:52:47.784Z,1023.70
2019-03-23T01:52:48.383Z,1023.65
2019-03-23T01:52:48.984Z,1023.69
2019-03-23T01:52:49.582Z,1023.71
2019-03-23T01:52:50.184Z,1023.68
2019-03-23T01:52:50.782Z,1023.70
2019-03-23T01:53:45.263Z,1023.64
2019-03-23T01:53:45.860Z,1023.66
2019-03-23T01:53:46.459Z,1023.67
2019-03-23T01:53:47.063Z,1023.65
2019-03-23T01:53:47.661Z,1023.64
2019-03-23T01:53:48.259Z,1023.64
2019-03-23T01:53:48.859Z,1023.63
2019-03-23T01:53:49.460Z,1023.61
2019-03-23T01:54:42.917Z,1023.63
2019-03-23T01:54:43.518Z,1023.62
2019-03-23T01:54:44.112Z,1023.63
2019-03-23T01:54:44.713Z,1023.65
2019-03-23T01:54:45.311Z,1023.67
2019-03-23T01:54:45.919Z,1023.66